Time;durP1;ratioP1;P1;durP2;ratioP2;P2;SDS_P1;SDS_P2;PMS_P1;PMS_P2;Temp;Humidity;BMP_temperature;BMP_pressure;BME280_temperature;BME280_humidity;BME280_pressure;Samples;Min_cycle;Max_cycle;Signal;HPM_P1;HPM_P2
2021/04/14 00:01:36;;;;;;;1.57;1.47;;;24.20;52.50;;;;;;4996734;28;20454;-86
2021/04/14 00:04:04;;;;;;;1.57;1.47;;;24.20;52.40;;;;;;4996655;28;20447;-86
2021/04/14 00:06:30;;;;;;;1.70;1.57;;;24.20;52.50;;;;;;4996628;28;20449;-86
2021/04/14 00:08:57;;;;;;;1.80;1.60;;;24.20;52.50;;;;;;4996630;28;20892;-86
2021/04/14 00:11:23;;;;;;;1.97;1.83;;;24.20;52.50;;;;;;4996564;28;20442;-86
2021/04/14 00:13:50;;;;;;;1.57;1.47;;;24.20;52.40;;;;;;4996504;28;20440;-86
2021/04/14 00:16:19;;;;;;;1.40;1.20;;;24.10;52.40;;;;;;4996513;28;20496;-86
2021/04/14 00:18:46;;;;;;;1.90;1.80;;;24.20;52.60;;;;;;4996046;28;20476;-86
2021/04/14 00:21:13;;;;;;;3.70;1.90;;;24.20;52.60;;;;;;4996290;28;20487;-86
2021/04/14 00:23:40;;;;;;;1.40;1.30;;;24.10;52.60;;;;;;4996545;28;20489;-86
2021/04/14 00:26:08;;;;;;;1.60;1.43;;;24.10;52.80;;;;;;4996641;28;20854;-86
2021/04/14 00:28:34;;;;;;;1.80;1.70;;;24.10;52.80;;;;;;4996028;28;20604;-86
2021/04/14 00:31:01;;;;;;;1.60;1.30;;;24.10;52.80;;;;;;4996480;28;20447;-86
2021/04/14 00:33:27;;;;;;;1.53;1.43;;;24.10;52.80;;;;;;4996088;28;20957;-86
2021/04/14 00:35:54;;;;;;;1.80;1.70;;;24.10;52.90;;;;;;4996389;28;20450;-86
2021/04/14 00:38:22;;;;;;;1.60;1.47;;;24.10;52.80;;;;;;4996225;28;20955;-86
2021/04/14 00:40:50;;;;;;;1.50;1.37;;;24.10;52.90;;;;;;4996335;28;20447;-86
2021/04/14 00:43:20;;;;;;;3.00;1.30;;;24.10;52.90;;;;;;4996231;28;20589;-86
2021/04/14 00:45:46;;;;;;;1.67;1.57;;;24.20;52.90;;;;;;4996227;28;20461;-86
2021/04/14 00:48:13;;;;;;;1.60;1.40;;;24.10;52.80;;;;;;4995930;28;20852;-86
2021/04/14 00:50:40;;;;;;;1.40;1.30;;;24.20;52.90;;;;;;4996053;28;20442;-86
2021/04/14 00:53:06;;;;;;;1.87;1.77;;;24.00;52.60;;;;;;4996006;28;20450;-86
2021/04/14 00:55:34;;;;;;;1.73;1.63;;;24.00;52.80;;;;;;4995710;28;20830;-86
2021/04/14 00:58:01;;;;;;;1.73;1.43;;;24.00;52.60;;;;;;4995573;28;20498;-86
2021/04/14 01:00:34;;;;;;;1.50;1.40;;;24.00;52.80;;;;;;4995894;28;20448;-86
2021/04/14 01:03:00;;;;;;;1.70;1.57;;;24.00;52.80;;;;;;4996266;28;20771;-86
2021/04/14 01:05:29;;;;;;;1.70;1.60;;;24.00;52.80;;;;;;4995236;28;20446;-86
2021/04/14 01:07:55;;;;;;;1.40;1.30;;;24.00;52.70;;;;;;4995621;28;20817;-86
2021/04/14 01:10:23;;;;;;;1.37;1.27;;;24.00;52.70;;;;;;4995717;28;20500;-86
2021/04/14 01:12:50;;;;;;;1.50;1.40;;;24.00;52.70;;;;;;4995426;28;20446;-86
2021/04/14 01:15:20;;;;;;;1.43;1.33;;;24.00;52.70;;;;;;4995412;28;20447;-86
2021/04/14 01:17:47;;;;;;;3.90;1.53;;;24.00;52.70;;;;;;4995137;28;20480;-86
2021/04/14 01:20:14;;;;;;;1.57;1.47;;;24.00;52.60;;;;;;4995188;28;20447;-86
2021/04/14 01:22:41;;;;;;;1.40;1.30;;;24.00;52.60;;;;;;4995493;28;20786;-86
2021/04/14 01:25:10;;;;;;;1.50;1.40;;;24.10;52.70;;;;;;4995222;28;20502;-86
2021/04/14 01:27:36;;;;;;;1.50;1.40;;;24.00;52.70;;;;;;4994966;28;20450;-86
2021/04/14 01:30:09;;;;;;;1.70;1.60;;;24.00;52.70;;;;;;4995026;28;20452;-86
2021/04/14 01:32:35;;;;;;;1.60;1.50;;;24.00;52.60;;;;;;4994741;28;20526;-86
2021/04/14 01:35:02;;;;;;;4.73;1.93;;;24.00;52.60;;;;;;4994564;28;20466;-86
2021/04/14 01:37:28;;;;;;;1.70;1.60;;;24.00;52.70;;;;;;4994872;28;20503;-85
2021/04/14 01:39:55;;;;;;;1.30;1.20;;;24.10;52.80;;;;;;4994677;28;20437;-86
2021/04/14 01:42:22;;;;;;;1.60;1.23;;;24.00;52.70;;;;;;4995037;28;20442;-86
2021/04/14 01:44:48;;;;;;;1.67;1.57;;;24.00;52.60;;;;;;4994737;28;20445;-86
2021/04/14 01:47:14;;;;;;;1.30;1.20;;;23.90;52.60;;;;;;4994128;28;20446;-86
2021/04/14 01:49:40;;;;;;;1.57;1.47;;;24.00;52.80;;;;;;4994652;28;20484;-86
2021/04/14 01:52:07;;;;;;;1.43;1.33;;;23.90;52.70;;;;;;4994689;28;20442;-86
2021/04/14 01:54:33;;;;;;;1.30;1.20;;;23.90;52.70;;;;;;4994591;28;20448;-86
2021/04/14 01:57:00;;;;;;;1.70;1.60;;;23.90;52.60;;;;;;4994266;28;20448;-85
2021/04/14 01:59:26;;;;;;;1.70;1.60;;;23.90;52.60;;;;;;4994397;28;20551;-86
2021/04/14 02:01:53;;;;;;;1.50;1.40;;;23.90;52.60;;;;;;4994290;28;20438;-86
2021/04/14 02:04:19;;;;;;;1.57;1.47;;;24.10;52.70;;;;;;4994153;28;20437;-86
2021/04/14 02:06:45;;;;;;;1.50;1.40;;;24.00;52.60;;;;;;4993975;28;20468;-86
2021/04/14 02:09:12;;;;;;;1.57;1.47;;;24.00;52.70;;;;;;4994161;28;20490;-86
2021/04/14 02:11:38;;;;;;;1.50;1.40;;;23.90;52.70;;;;;;4994177;28;20456;-86
2021/04/14 02:14:05;;;;;;;1.20;1.10;;;23.90;52.60;;;;;;4994074;28;20445;-86
2021/04/14 02:16:31;;;;;;;1.60;1.50;;;23.90;52.60;;;;;;4993401;28;20444;-86
2021/04/14 02:18:57;;;;;;;1.40;1.30;;;23.90;52.60;;;;;;4993902;28;20973;-86
2021/04/14 02:21:24;;;;;;;1.40;1.30;;;23.90;52.60;;;;;;4993909;28;20504;-86
2021/04/14 02:23:52;;;;;;;1.50;1.40;;;23.90;52.60;;;;;;4994375;28;20527;-86
2021/04/14 02:26:21;;;;;;;1.40;1.30;;;23.90;52.60;;;;;;4993885;28;20952;-86
2021/04/14 02:28:59;;;;;;;1.30;1.17;;;23.90;52.60;;;;;;4993847;28;21142;-86
2021/04/14 02:31:30;;;;;;;1.50;1.40;;;23.90;52.60;;;;;;4994126;28;20532;-86
2021/04/14 02:33:58;;;;;;;1.70;1.60;;;23.90;52.50;;;;;;4994310;28;20823;-86
2021/04/14 02:36:25;;;;;;;1.70;1.60;;;23.90;52.50;;;;;;4993990;28;20474;-85
2021/04/14 02:38:51;;;;;;;1.47;1.37;;;23.90;52.40;;;;;;4994267;28;20802;-86
2021/04/14 02:41:18;;;;;;;1.40;1.30;;;23.90;52.50;;;;;;4994071;28;20807;-86
2021/04/14 02:43:44;;;;;;;1.40;1.30;;;23.90;52.50;;;;;;4993901;28;20440;-86
2021/04/14 02:46:11;;;;;;;1.80;1.70;;;24.00;52.60;;;;;;4993950;28;20445;-86
2021/04/14 02:48:38;;;;;;;1.80;1.30;;;23.90;52.50;;;;;;4994237;28;20869;-86
2021/04/14 02:51:05;;;;;;;1.67;1.27;;;24.00;52.60;;;;;;4994281;28;20456;-86
2021/04/14 02:53:31;;;;;;;1.27;1.17;;;23.80;52.40;;;;;;4994036;28;20449;-86
2021/04/14 02:55:57;;;;;;;1.60;1.30;;;23.80;52.50;;;;;;4994156;28;20580;-86
2021/04/14 02:58:23;;;;;;;1.57;1.47;;;24.00;52.70;;;;;;4993658;28;20453;-86
2021/04/14 03:00:50;;;;;;;1.33;1.23;;;24.00;52.60;;;;;;4994074;28;20444;-85
2021/04/14 03:03:16;;;;;;;1.40;1.30;;;23.80;52.50;;;;;;4993593;28;20445;-86
2021/04/14 03:05:43;;;;;;;1.27;1.17;;;23.80;52.50;;;;;;4993792;28;20517;-85
2021/04/14 03:08:10;;;;;;;1.30;1.10;;;23.80;52.50;;;;;;4993578;28;20486;-85
2021/04/14 03:10:36;;;;;;;1.73;1.60;;;23.80;52.50;;;;;;4993624;28;20854;-86
2021/04/14 03:13:04;;;;;;;1.53;1.30;;;24.00;52.60;;;;;;4993990;28;20507;-86
2021/04/14 03:15:33;;;;;;;1.20;1.10;;;23.80;52.40;;;;;;4993785;28;20456;-86
2021/04/14 03:18:00;;;;;;;1.30;1.13;;;23.80;52.50;;;;;;4993350;28;20989;-86
2021/04/14 03:20:26;;;;;;;1.37;1.27;;;23.80;52.40;;;;;;4993408;28;20530;-86
2021/04/14 03:22:55;;;;;;;1.63;1.53;;;23.80;52.40;;;;;;4993713;28;20441;-86
2021/04/14 03:25:23;;;;;;;1.70;1.60;;;23.80;52.40;;;;;;4993643;28;20502;-86
2021/04/14 03:27:50;;;;;;;1.30;1.20;;;24.00;52.60;;;;;;4993890;28;20437;-86
2021/04/14 03:30:17;;;;;;;2.20;1.40;;;23.80;52.40;;;;;;4997262;28;20445;-86
2021/04/14 03:32:44;;;;;;;1.43;1.33;;;23.80;52.40;;;;;;4997210;28;21059;-86
2021/04/14 03:35:11;;;;;;;1.37;1.27;;;23.80;52.50;;;;;;4997449;28;20445;-86
2021/04/14 03:37:37;;;;;;;1.30;1.20;;;23.80;52.40;;;;;;4997239;28;20450;-86
2021/04/14 03:40:06;;;;;;;1.60;1.50;;;23.80;52.40;;;;;;4997404;28;20457;-86
2021/04/14 03:42:33;;;;;;;1.47;1.20;;;23.80;52.50;;;;;;4996993;28;20451;-86
2021/04/14 03:45:01;;;;;;;1.30;1.20;;;23.80;52.50;;;;;;4997121;28;20955;-86
2021/04/14 03:47:27;;;;;;;1.60;1.43;;;23.80;52.40;;;;;;4997127;28;20555;-86
2021/04/14 03:49:54;;;;;;;1.50;1.40;;;23.80;52.50;;;;;;4996878;28;20509;-86
2021/04/14 03:52:21;;;;;;;1.13;1.03;;;23.80;52.50;;;;;;4996802;28;20455;-86
2021/04/14 03:54:48;;;;;;;1.40;1.30;;;23.80;52.50;;;;;;4996784;28;20442;-86
2021/04/14 03:57:15;;;;;;;1.40;1.30;;;23.90;52.60;;;;;;4996885;28;20502;-86
2021/04/14 03:59:42;;;;;;;1.37;1.27;;;23.80;52.50;;;;;;4996775;28;21002;-85
2021/04/14 04:02:08;;;;;;;1.60;1.50;;;23.90;52.50;;;;;;4997001;28;20456;-86
2021/04/14 04:04:34;;;;;;;1.23;1.10;;;23.80;52.40;;;;;;4996707;28;20446;-84
2021/04/14 04:07:01;;;;;;;1.33;1.20;;;23.80;52.60;;;;;;4996665;28;20448;-84
2021/04/14 04:09:27;;;;;;;1.43;1.33;;;23.80;52.60;;;;;;4996482;28;20489;-85
2021/04/14 04:11:53;;;;;;;3.10;1.40;;;23.80;53.00;;;;;;4996549;28;20790;-85
2021/04/14 04:14:20;;;;;;;2.30;1.40;;;23.80;52.70;;;;;;4996651;28;20501;-85
2021/04/14 04:16:47;;;;;;;2.90;1.40;;;23.80;52.70;;;;;;4996492;28;20533;-85
2021/04/14 04:19:13;;;;;;;1.47;1.37;;;23.80;52.80;;;;;;4996397;28;20831;-85
2021/04/14 04:21:39;;;;;;;1.30;1.20;;;23.80;52.90;;;;;;4996187;28;20482;-85
2021/04/14 04:24:06;;;;;;;1.60;1.30;;;23.80;52.80;;;;;;4996461;28;20441;-85
2021/04/14 04:26:33;;;;;;;1.60;1.20;;;23.80;52.80;;;;;;4996049;28;20455;-85
2021/04/14 04:28:59;;;;;;;1.50;1.40;;;23.80;52.80;;;;;;4996195;28;20498;-85
2021/04/14 04:31:26;;;;;;;1.20;1.10;;;23.80;52.80;;;;;;4995970;28;20445;-85
2021/04/14 04:33:52;;;;;;;1.17;1.07;;;23.90;52.80;;;;;;4995967;28;20450;-85
2021/04/14 04:36:19;;;;;;;1.30;1.20;;;23.80;52.80;;;;;;4996257;28;20462;-85
2021/04/14 04:38:45;;;;;;;1.40;1.20;;;23.80;52.80;;;;;;4996192;28;20445;-85
2021/04/14 04:41:11;;;;;;;1.60;1.50;;;23.80;52.70;;;;;;4995074;28;20452;-85
2021/04/14 04:43:38;;;;;;;1.30;1.20;;;23.80;52.60;;;;;;4995907;28;20442;-85
2021/04/14 04:46:04;;;;;;;1.30;1.20;;;23.80;52.70;;;;;;4995870;28;20953;-85
2021/04/14 04:48:31;;;;;;;1.50;1.10;;;23.80;52.70;;;;;;4995877;28;20489;-85
2021/04/14 04:50:57;;;;;;;1.23;1.13;;;23.80;52.70;;;;;;4995708;28;20479;-85
2021/04/14 04:53:24;;;;;;;1.40;1.30;;;23.80;52.80;;;;;;4995965;28;20512;-85
2021/04/14 04:55:52;;;;;;;2.23;1.40;;;23.80;52.70;;;;;;4996446;28;20454;-86
2021/04/14 04:58:19;;;;;;;1.50;1.40;;;23.80;52.70;;;;;;4995684;28;20458;-86
2021/04/14 05:00:46;;;;;;;1.40;1.30;;;23.80;52.70;;;;;;4995567;28;20926;-85
2021/04/14 05:03:15;;;;;;;1.40;1.30;;;23.70;52.60;;;;;;4995429;28;20444;-86
2021/04/14 05:05:42;;;;;;;1.30;1.07;;;23.80;52.70;;;;;;4995341;28;20445;-85
2021/04/14 05:08:10;;;;;;;1.13;1.03;;;23.80;52.70;;;;;;4995409;28;20478;-86
2021/04/14 05:10:37;;;;;;;1.60;1.50;;;23.70;52.50;;;;;;4995303;28;20452;-86
2021/04/14 05:13:04;;;;;;;1.87;1.27;;;23.70;52.70;;;;;;4995586;28;20533;-85
2021/04/14 05:15:34;;;;;;;1.33;1.23;;;23.70;52.60;;;;;;4995642;28;20527;-84
2021/04/14 05:18:00;;;;;;;1.10;1.00;;;23.70;52.60;;;;;;4995041;28;20465;-85
2021/04/14 05:20:40;;;;;;;1.60;1.50;;;23.80;52.80;;;;;;4995001;28;20473;-84
2021/04/14 05:23:08;;;;;;;2.70;1.10;;;23.80;52.10;;;;;;4995338;28;20441;-85
2021/04/14 05:25:38;;;;;;;1.63;1.27;;;23.80;52.60;;;;;;4995146;28;20450;-85
2021/04/14 05:28:07;;;;;;;1.80;1.60;;;24.00;52.90;;;;;;4994826;28;20456;-85
2021/04/14 05:30:33;;;;;;;1.27;1.17;;;23.80;52.70;;;;;;4995169;28;20453;-85
2021/04/14 05:33:00;;;;;;;2.67;1.30;;;23.80;52.70;;;;;;4995053;28;20457;-85
2021/04/14 05:35:26;;;;;;;1.10;0.97;;;23.80;52.70;;;;;;4995169;28;20994;-84
2021/04/14 05:37:53;;;;;;;1.30;1.13;;;23.80;52.70;;;;;;4995001;28;20449;-85
2021/04/14 05:40:22;;;;;;;2.07;1.17;;;23.80;52.70;;;;;;4994854;28;20436;-85
2021/04/14 05:42:49;;;;;;;1.40;1.30;;;23.80;52.70;;;;;;4995220;28;20458;-85
2021/04/14 05:45:19;;;;;;;2.50;1.50;;;23.80;52.70;;;;;;4995473;28;20449;-85
2021/04/14 05:47:45;;;;;;;1.40;1.30;;;23.80;52.70;;;;;;4994868;28;20465;-85
2021/04/14 05:50:14;;;;;;;1.40;1.30;;;23.80;52.70;;;;;;4994768;28;20862;-85
2021/04/14 05:52:40;;;;;;;2.20;1.27;;;23.80;52.70;;;;;;4994697;28;20437;-84
2021/04/14 05:55:09;;;;;;;1.70;1.30;;;23.80;52.80;;;;;;4994616;28;20469;-84
2021/04/14 05:57:36;;;;;;;1.37;1.27;;;23.80;52.70;;;;;;4994432;28;20444;-85
2021/04/14 06:00:05;;;;;;;1.90;1.77;;;23.90;52.30;;;;;;4994266;28;20481;-86
2021/04/14 06:02:31;;;;;;;1.70;1.60;;;23.90;52.00;;;;;;4994363;28;20499;-86
2021/04/14 06:04:57;;;;;;;1.10;1.00;;;24.00;52.40;;;;;;4994387;28;20445;-85
2021/04/14 06:07:24;;;;;;;1.90;1.70;;;24.10;53.30;;;;;;4994482;28;20443;-85
2021/04/14 06:09:50;;;;;;;2.13;1.67;;;23.90;52.60;;;;;;4994590;28;20489;-85
2021/04/14 06:12:23;;;;;;;3.50;1.40;;;24.00;52.40;;;;;;4994556;28;20447;-85
2021/04/14 06:14:50;;;;;;;1.93;1.60;;;24.00;52.30;;;;;;4994495;28;20454;-85
2021/04/14 06:17:16;;;;;;;1.40;1.30;;;24.00;52.40;;;;;;4994283;28;20478;-86
2021/04/14 06:19:43;;;;;;;1.60;1.40;;;24.10;52.50;;;;;;4994445;28;20449;-85
2021/04/14 06:22:10;;;;;;;1.67;1.50;;;24.00;52.50;;;;;;4994182;28;20474;-85
2021/04/14 06:24:36;;;;;;;1.60;1.50;;;24.00;52.40;;;;;;4994292;28;20453;-85
2021/04/14 06:27:05;;;;;;;1.50;1.40;;;24.10;52.50;;;;;;4994175;28;20543;-85
2021/04/14 06:29:32;;;;;;;1.83;1.60;;;24.10;52.40;;;;;;4994335;28;20576;-85
2021/04/14 06:31:59;;;;;;;1.70;1.60;;;24.10;52.50;;;;;;4994014;28;21015;-85
2021/04/14 06:34:27;;;;;;;1.67;1.57;;;24.10;52.50;;;;;;4994034;28;20961;-85
2021/04/14 06:36:56;;;;;;;1.70;1.60;;;24.30;52.70;;;;;;4994199;28;20537;-85
2021/04/14 06:39:26;;;;;;;2.10;1.70;;;24.10;52.60;;;;;;4993830;28;20446;-85
2021/04/14 06:42:08;;;;;;;1.97;1.60;;;24.20;52.60;;;;;;4993861;28;20497;-85
2021/04/14 06:44:56;;;;;;;2.10;1.90;;;24.20;52.80;;;;;;4993801;28;20537;-85
2021/04/14 06:47:31;;;;;;;1.80;1.33;;;24.20;53.10;;;;;;4993850;28;20470;-85
2021/04/14 06:50:04;;;;;;;1.70;1.60;;;24.20;52.60;;;;;;4993833;28;20495;-85
2021/04/14 06:52:35;;;;;;;3.27;1.83;;;24.20;52.60;;;;;;4994212;28;20450;-85
2021/04/14 06:58:33;;;;;;;2.13;1.97;;;24.30;52.80;;;;;;4994025;28;20433;-85
2021/04/14 07:07:47;;;;;;;1.57;1.47;;;24.30;52.70;;;;;;4997870;28;20413;-85
2021/04/14 07:10:20;;;;;;;2.43;2.23;;;24.30;53.00;;;;;;4997596;28;21016;-86
2021/04/14 07:16:39;;;;;;;5.80;3.33;;;24.40;52.70;;;;;;4997972;28;20421;-86
2021/04/14 07:19:15;;;;;;;3.10;2.43;;;24.40;53.00;;;;;;4996566;28;20457;-85
2021/04/14 07:21:48;;;;;;;7.00;2.03;;;24.40;53.00;;;;;;4997444;28;20474;-86
2021/04/14 07:24:24;;;;;;;2.40;2.20;;;24.40;52.70;;;;;;4998001;28;20809;-86
2021/04/14 07:26:56;;;;;;;2.87;2.20;;;24.50;52.90;;;;;;4997356;28;20442;-86
2021/04/14 07:32:58;;;;;;;3.03;2.37;;;24.60;52.90;;;;;;4997288;28;20498;-86
2021/04/14 07:35:28;;;;;;;2.87;1.97;;;24.50;53.00;;;;;;4997287;28;20448;-86
2021/04/14 07:38:02;;;;;;;2.83;2.30;;;24.60;53.20;;;;;;4997027;28;20445;-85
2021/04/14 07:40:41;;;;;;;8.60;3.63;;;24.50;53.00;;;;;;4997303;28;20504;-85
2021/04/14 07:43:16;;;;;;;4.77;3.30;;;24.50;52.50;;;;;;4996941;28;20437;-86
2021/04/14 07:45:42;;;;;;;3.97;2.40;;;24.50;52.70;;;;;;4997252;28;20449;-85
2021/04/14 07:48:17;;;;;;;2.30;2.10;;;24.50;53.00;;;;;;4996741;28;20475;-86
2021/04/14 07:50:52;;;;;;;9.57;4.20;;;24.60;53.30;;;;;;4996773;28;20445;-85
2021/04/14 07:53:21;;;;;;;14.07;8.20;;;24.60;52.90;;;;;;4997121;28;20442;-86
2021/04/14 07:56:01;;;;;;;9.70;6.90;;;24.50;50.60;;;;;;4998005;28;20454;-88
2021/04/14 07:58:27;;;;;;;7.80;4.60;;;24.60;51.20;;;;;;4997653;28;20452;-81
2021/04/14 08:04:20;;;;;;;5.53;4.47;;;24.60;52.70;;;;;;4996522;28;20474;-81
2021/04/14 08:06:47;;;;;;;5.77;4.17;;;24.60;52.80;;;;;;4996502;28;20509;-82
2021/04/14 08:09:18;;;;;;;8.33;4.80;;;24.70;52.70;;;;;;4996633;28;20495;-81
2021/04/14 08:11:46;;;;;;;8.77;4.43;;;24.70;52.80;;;;;;4996588;28;20525;-82
2021/04/14 08:14:15;;;;;;;4.83;4.33;;;24.70;52.70;;;;;;4995792;28;20947;-81
2021/04/14 08:16:47;;;;;;;4.10;3.70;;;24.80;52.80;;;;;;4996139;28;20463;-81
2021/04/14 08:19:22;;;;;;;5.40;4.23;;;24.80;52.60;;;;;;4996321;28;20442;-81
2021/04/14 08:21:58;;;;;;;7.90;4.90;;;24.80;52.80;;;;;;4995993;28;20536;-82
2021/04/14 08:24:28;;;;;;;5.30;4.70;;;24.80;52.90;;;;;;4996197;28;20439;-81
2021/04/14 08:26:59;;;;;;;5.00;4.47;;;24.70;53.20;;;;;;4996348;28;20450;-81
2021/04/14 08:29:26;;;;;;;6.67;4.50;;;24.60;53.30;;;;;;4996240;28;20487;-84
2021/04/14 08:31:53;;;;;;;6.60;4.20;;;24.60;53.20;;;;;;4996196;28;20451;-82
2021/04/14 08:34:26;;;;;;;6.27;4.90;;;24.70;52.60;;;;;;4996268;28;20486;-82
2021/04/14 08:36:57;;;;;;;7.90;5.07;;;24.80;52.40;;;;;;4996347;28;20448;-81
2021/04/14 08:39:29;;;;;;;6.30;4.70;;;24.90;52.10;;;;;;4997924;28;20527;-83
2021/04/14 08:42:09;;;;;;;7.20;4.93;;;24.90;52.10;;;;;;4998031;28;20443;-84
2021/04/14 08:44:37;;;;;;;8.63;4.53;;;24.80;52.80;;;;;;4997642;28;20525;-84
2021/04/14 08:47:09;;;;;;;14.57;5.57;;;24.70;53.00;;;;;;4997717;28;20472;-84
2021/04/14 08:49:38;;;;;;;10.17;5.50;;;24.70;53.30;;;;;;4997875;28;20514;-84
2021/04/14 08:52:06;;;;;;;8.30;4.90;;;24.70;53.40;;;;;;4997962;28;20457;-84
2021/04/14 08:54:48;;;;;;;5.87;4.10;;;24.70;53.50;;;;;;4997640;28;20448;-84
2021/04/14 08:57:18;;;;;;;9.73;4.13;;;24.80;52.70;;;;;;4997875;28;20440;-84
2021/04/14 08:59:45;;;;;;;14.37;4.50;;;24.80;53.50;;;;;;4997305;28;20454;-84
2021/04/14 09:02:15;;;;;;;6.53;4.07;;;24.80;53.60;;;;;;4998052;28;20490;-84
2021/04/14 09:04:44;;;;;;;6.17;4.00;;;24.90;53.80;;;;;;4996920;28;20487;-84
2021/04/14 09:07:15;;;;;;;5.67;4.13;;;24.90;53.70;;;;;;4997152;28;20467;-84
2021/04/14 09:09:46;;;;;;;7.33;4.37;;;24.90;53.70;;;;;;4996883;28;20492;-84
2021/04/14 09:12:13;;;;;;;4.10;3.43;;;25.00;53.80;;;;;;4996955;28;20990;-84
2021/04/14 09:14:41;;;;;;;4.50;4.10;;;25.00;52.60;;;;;;4997355;28;20444;-83
2021/04/14 09:17:17;;;;;;;5.37;3.93;;;25.20;51.50;;;;;;4996493;28;20464;-83
2021/04/14 09:19:45;;;;;;;7.63;4.33;;;25.50;52.10;;;;;;4995235;28;20439;-82
2021/04/14 09:22:21;;;;;;;5.70;4.30;;;25.30;52.30;;;;;;4997529;28;20474;-82
2021/04/14 09:24:50;;;;;;;5.27;3.60;;;25.20;52.60;;;;;;4995434;28;20436;-82
2021/04/14 09:27:28;;;;;;;6.97;3.80;;;25.10;52.80;;;;;;4992213;28;20443;-82
2021/04/14 09:30:15;;;;;;;7.40;3.90;;;25.20;52.90;;;;;;4992615;28;20491;-82
2021/04/14 09:32:54;;;;;;;3.73;3.03;;;25.20;53.00;;;;;;4992781;28;20437;-82
2021/04/14 09:35:38;;;;;;;4.50;3.47;;;25.20;53.10;;;;;;4992644;28;20669;-82
2021/04/14 09:38:08;;;;;;;5.43;3.20;;;25.20;53.20;;;;;;4993177;28;20448;-82
2021/04/14 09:40:36;;;;;;;5.03;3.97;;;25.20;53.30;;;;;;4994602;28;20474;-82
2021/04/14 09:43:16;;;;;;;3.60;3.30;;;25.20;53.30;;;;;;4994640;28;20450;-82
2021/04/14 09:45:54;;;;;;;5.57;3.83;;;25.30;53.40;;;;;;4994627;28;20447;-82
2021/04/14 09:48:20;;;;;;;5.50;3.50;;;25.30;53.50;;;;;;4994362;28;20464;-82
2021/04/14 09:50:48;;;;;;;5.13;3.23;;;25.20;53.40;;;;;;4994396;28;20444;-82
2021/04/14 09:53:27;;;;;;;6.43;4.13;;;25.30;53.50;;;;;;4994580;28;20443;-82
2021/04/14 09:55:57;;;;;;;8.20;2.80;;;25.30;53.50;;;;;;4994451;28;20444;-82
2021/04/14 09:58:28;;;;;;;4.30;3.10;;;25.30;53.60;;;;;;4994363;28;20478;-82
2021/04/14 10:00:58;;;;;;;4.37;3.43;;;25.30;53.60;;;;;;4994358;28;20443;-82
2021/04/14 10:03:30;;;;;;;7.70;3.80;;;25.20;53.50;;;;;;4994177;28;20494;-82
2021/04/14 10:06:04;;;;;;;5.50;3.70;;;25.20;53.70;;;;;;4994159;28;20762;-82
2021/04/14 10:08:32;;;;;;;4.40;3.20;;;25.20;53.70;;;;;;4993845;28;20440;-82
2021/04/14 10:10:58;;;;;;;3.80;3.10;;;25.20;53.70;;;;;;4994268;28;20481;-82
2021/04/14 10:13:29;;;;;;;5.73;3.40;;;25.20;53.70;;;;;;4994057;28;20502;-82
2021/04/14 10:15:57;;;;;;;5.07;3.67;;;25.20;53.70;;;;;;4994117;28;20451;-82
2021/04/14 10:18:25;;;;;;;5.23;3.60;;;25.30;53.80;;;;;;4993975;28;20522;-82
2021/04/14 10:20:53;;;;;;;5.33;3.17;;;25.40;53.90;;;;;;4993799;28;20482;-82
2021/04/14 10:23:21;;;;;;;7.57;3.80;;;25.30;53.80;;;;;;4993963;28;20444;-81
2021/04/14 10:25:48;;;;;;;4.50;4.07;;;25.40;53.90;;;;;;4993774;28;20440;-82
2021/04/14 10:28:21;;;;;;;5.20;2.50;;;25.40;53.80;;;;;;4993739;28;20443;-82
2021/04/14 10:30:50;;;;;;;3.97;3.00;;;25.40;53.90;;;;;;4993916;28;20436;-82
2021/04/14 10:33:22;;;;;;;5.40;3.23;;;25.30;53.90;;;;;;4993908;28;20516;-81
2021/04/14 10:35:50;;;;;;;3.83;3.00;;;25.30;53.90;;;;;;4993818;28;20803;-82
2021/04/14 10:38:27;;;;;;;3.60;3.17;;;25.30;53.90;;;;;;4993083;28;20446;-82
2021/04/14 10:40:53;;;;;;;5.10;3.87;;;25.30;53.80;;;;;;4993880;28;20455;-82
2021/04/14 10:43:22;;;;;;;4.97;3.40;;;25.30;53.90;;;;;;4993914;28;20436;-82
2021/04/14 10:45:59;;;;;;;2.67;2.37;;;25.30;53.80;;;;;;4993747;28;20451;-82
2021/04/14 10:48:27;;;;;;;4.30;2.70;;;25.30;53.80;;;;;;4993520;28;20464;-82
2021/04/14 10:51:04;;;;;;;4.27;3.30;;;25.30;53.90;;;;;;4993877;28;20447;-82
2021/04/14 10:53:35;;;;;;;4.17;3.10;;;25.30;53.90;;;;;;4993810;28;20452;-82
2021/04/14 10:56:02;;;;;;;3.83;3.43;;;25.30;53.90;;;;;;4993779;28;20452;-81
2021/04/14 10:58:31;;;;;;;5.33;2.67;;;25.30;54.00;;;;;;4993616;28;20519;-82
2021/04/14 11:00:58;;;;;;;4.27;3.30;;;25.30;54.00;;;;;;4993566;28;20452;-82
2021/04/14 11:03:26;;;;;;;3.37;3.00;;;25.40;54.10;;;;;;4993556;28;20446;-82
2021/04/14 11:05:56;;;;;;;6.90;3.13;;;25.40;54.10;;;;;;4993569;28;20444;-84
2021/04/14 11:08:23;;;;;;;4.57;2.97;;;25.50;54.10;;;;;;4993546;28;20470;-83
2021/04/14 11:10:52;;;;;;;5.20;3.17;;;25.50;53.90;;;;;;4993489;28;20478;-83
2021/04/14 11:13:20;;;;;;;3.90;3.23;;;25.70;53.90;;;;;;4993567;28;20444;-82
2021/04/14 11:15:49;;;;;;;3.27;2.97;;;25.70;53.90;;;;;;4993476;28;20544;-82
2021/04/14 11:18:18;;;;;;;2.80;2.53;;;25.70;53.80;;;;;;4993346;28;20464;-82
2021/04/14 11:20:49;;;;;;;5.43;3.73;;;25.70;53.80;;;;;;4993249;28;20480;-83
2021/04/14 11:23:20;;;;;;;5.27;2.90;;;25.70;53.80;;;;;;4993570;28;20441;-83
2021/04/14 11:25:47;;;;;;;3.40;2.60;;;25.80;53.90;;;;;;4993432;28;20448;-83
2021/04/14 11:28:15;;;;;;;3.60;2.77;;;25.60;53.90;;;;;;4993322;28;20451;-83
2021/04/14 11:30:54;;;;;;;3.90;2.40;;;25.80;54.00;;;;;;4993229;28;20491;-82
2021/04/14 11:33:32;;;;;;;3.37;3.07;;;25.60;54.00;;;;;;4993340;28;20440;-82
2021/04/14 11:35:59;;;;;;;5.20;3.07;;;25.50;54.00;;;;;;4993279;28;20798;-82
2021/04/14 11:38:32;;;;;;;3.10;2.80;;;25.50;54.10;;;;;;4993274;28;20440;-82
2021/04/14 11:40:59;;;;;;;2.83;2.63;;;25.50;54.10;;;;;;4993242;28;20476;-83
2021/04/14 11:43:30;;;;;;;3.03;2.37;;;25.40;54.10;;;;;;4993190;28;20451;-83
2021/04/14 11:45:59;;;;;;;4.40;2.40;;;25.40;54.10;;;;;;4993001;28;20446;-83
2021/04/14 11:48:32;;;;;;;2.67;2.47;;;25.60;54.20;;;;;;4993040;28;20552;-82
2021/04/14 11:51:11;;;;;;;2.67;2.40;;;25.40;54.10;;;;;;4996803;28;20440;-83
2021/04/14 11:53:49;;;;;;;6.40;2.30;;;25.40;54.10;;;;;;4996770;28;20450;-83
2021/04/14 11:56:37;;;;;;;3.00;2.40;;;25.50;54.10;;;;;;4996613;28;20448;-83
2021/04/14 11:59:09;;;;;;;3.90;2.47;;;25.50;54.10;;;;;;4996774;28;20455;-84
2021/04/14 12:01:36;;;;;;;3.90;2.37;;;25.60;54.10;;;;;;4996811;28;20534;-82
2021/04/14 12:04:11;;;;;;;3.20;2.50;;;25.40;54.10;;;;;;4996512;28;20861;-83
2021/04/14 12:06:38;;;;;;;6.47;2.87;;;25.40;54.10;;;;;;4996449;28;20470;-83
2021/04/14 12:09:05;;;;;;;3.67;2.50;;;25.40;54.60;;;;;;4996383;28;20488;-82
2021/04/14 12:11:31;;;;;;;6.47;2.70;;;25.40;54.70;;;;;;4996335;28;20448;-82
2021/04/14 12:13:57;;;;;;;3.83;2.90;;;25.40;54.80;;;;;;4996519;28;20470;-82
2021/04/14 12:16:24;;;;;;;5.30;2.80;;;25.50;54.80;;;;;;4996000;28;20487;-82
2021/04/14 12:18:51;;;;;;;8.83;2.63;;;25.50;54.80;;;;;;4996265;28;20455;-83
2021/04/14 12:21:18;;;;;;;8.13;2.40;;;25.60;54.70;;;;;;4995988;28;20475;-83
2021/04/14 12:23:46;;;;;;;4.27;2.73;;;25.60;54.60;;;;;;4996011;28;20444;-83
2021/04/14 12:26:13;;;;;;;3.73;2.53;;;25.60;54.50;;;;;;4996065;28;20444;-82
2021/04/14 12:28:39;;;;;;;5.00;2.70;;;25.70;54.50;;;;;;4995977;28;21003;-83
2021/04/14 12:31:05;;;;;;;3.07;2.20;;;25.70;54.40;;;;;;4996132;28;20442;-83
2021/04/14 12:33:32;;;;;;;4.77;2.50;;;25.70;54.40;;;;;;4995942;28;20444;-82
2021/04/14 12:35:58;;;;;;;2.73;1.97;;;25.70;54.40;;;;;;4995849;28;21431;-83
2021/04/14 12:38:24;;;;;;;8.13;3.00;;;25.70;54.40;;;;;;4995876;28;20806;-82
2021/04/14 12:40:52;;;;;;;5.13;3.03;;;25.90;54.50;;;;;;4995872;28;20451;-83
2021/04/14 12:43:18;;;;;;;2.67;2.27;;;25.80;54.40;;;;;;4995945;28;20638;-83
2021/04/14 12:45:47;;;;;;;3.00;2.40;;;25.80;54.30;;;;;;4995688;28;20459;-83
2021/04/14 12:48:17;;;;;;;5.07;2.60;;;25.80;54.20;;;;;;4995742;28;20469;-83
2021/04/14 12:50:44;;;;;;;2.97;2.10;;;25.90;54.20;;;;;;4995630;28;20511;-83
2021/04/14 12:53:12;;;;;;;3.87;2.30;;;25.90;54.20;;;;;;4995840;28;20449;-83
2021/04/14 12:55:47;;;;;;;3.27;2.20;;;25.90;54.20;;;;;;4995703;28;20935;-83
2021/04/14 12:58:23;;;;;;;3.30;2.10;;;26.00;54.10;;;;;;4995478;28;20451;-83
2021/04/14 13:07:38;;;;;;;4.33;2.47;;;26.00;54.10;;;;;;4995026;28;20467;-83
2021/04/14 13:10:09;;;;;;;2.23;2.03;;;26.00;54.10;;;;;;4995164;28;20516;-83
2021/04/14 13:12:37;;;;;;;2.57;1.80;;;26.00;54.10;;;;;;4995254;28;20440;-83
2021/04/14 13:15:08;;;;;;;4.33;2.47;;;26.00;54.10;;;;;;4995115;28;20523;-83
2021/04/14 13:18:24;;;;;;;3.17;1.90;;;26.00;54.20;;;;;;4994539;28;20473;-83
2021/04/14 13:24:25;;;;;;;8.10;2.03;;;25.90;54.40;;;;;;4991433;28;20462;-83
2021/04/14 13:27:02;;;;;;;4.10;2.00;;;25.80;54.50;;;;;;4994907;28;20436;-83